sensor_id;sensor_type;location;lat;lon;timestamp;P1;durP1;ratioP1;P2;durP2;ratioP2
78563;SDS011;67856;47.754;19.088;2023-04-15T00:02:59;5.53;;;2.60;;
78563;SDS011;67856;47.754;19.088;2023-04-15T00:06:03;4.50;;;2.50;;
78563;SDS011;67856;47.754;19.088;2023-04-15T00:09:05;4.80;;;2.53;;
78563;SDS011;67856;47.754;19.088;2023-04-15T00:12:08;4.73;;;2.57;;
78563;SDS011;67856;47.754;19.088;2023-04-15T00:15:10;4.60;;;2.50;;
78563;SDS011;67856;47.754;19.088;2023-04-15T00:18:13;4.68;;;2.50;;
78563;SDS011;67856;47.754;19.088;2023-04-15T00:21:15;3.97;;;2.55;;
78563;SDS011;67856;47.754;19.088;2023-04-15T00:24:18;5.57;;;2.70;;
78563;SDS011;67856;47.754;19.088;2023-04-15T00:27:20;4.23;;;2.30;;
78563;SDS011;67856;47.754;19.088;2023-04-15T00:30:22;4.47;;;2.60;;
78563;SDS011;67856;47.754;19.088;2023-04-15T00:33:25;4.70;;;2.83;;
78563;SDS011;67856;47.754;19.088;2023-04-15T00:36:27;3.75;;;2.40;;
78563;SDS011;67856;47.754;19.088;2023-04-15T00:39:30;3.95;;;2.55;;
78563;SDS011;67856;47.754;19.088;2023-04-15T00:42:33;3.80;;;2.50;;
78563;SDS011;67856;47.754;19.088;2023-04-15T00:45:35;4.20;;;2.60;;
78563;SDS011;67856;47.754;19.088;2023-04-15T00:48:38;4.47;;;2.38;;
78563;SDS011;67856;47.754;19.088;2023-04-15T00:51:41;5.28;;;2.80;;
78563;SDS011;67856;47.754;19.088;2023-04-15T00:54:44;4.07;;;2.50;;
78563;SDS011;67856;47.754;19.088;2023-04-15T00:57:46;4.20;;;2.40;;
78563;SDS011;67856;47.754;19.088;2023-04-15T01:00:49;5.10;;;2.57;;
78563;SDS011;67856;47.754;19.088;2023-04-15T01:03:55;4.85;;;2.80;;
78563;SDS011;67856;47.754;19.088;2023-04-15T01:07:01;4.13;;;2.40;;
78563;SDS011;67856;47.754;19.088;2023-04-15T01:10:04;4.90;;;2.88;;
78563;SDS011;67856;47.754;19.088;2023-04-15T01:13:06;4.20;;;2.57;;
78563;SDS011;67856;47.754;19.088;2023-04-15T01:16:09;4.03;;;2.50;;
78563;SDS011;67856;47.754;19.088;2023-04-15T01:19:12;4.65;;;2.28;;
78563;SDS011;67856;47.754;19.088;2023-04-15T01:22:16;4.20;;;2.30;;
78563;SDS011;67856;47.754;19.088;2023-04-15T01:25:18;4.65;;;2.67;;
78563;SDS011;67856;47.754;19.088;2023-04-15T01:28:28;4.37;;;2.50;;
78563;SDS011;67856;47.754;19.088;2023-04-15T01:31:32;4.10;;;2.63;;
78563;SDS011;67856;47.754;19.088;2023-04-15T01:34:34;4.10;;;2.38;;
78563;SDS011;67856;47.754;19.088;2023-04-15T01:37:37;4.35;;;2.60;;
78563;SDS011;67856;47.754;19.088;2023-04-15T01:40:39;3.90;;;2.22;;
78563;SDS011;67856;47.754;19.088;2023-04-15T01:43:41;4.47;;;2.33;;
78563;SDS011;67856;47.754;19.088;2023-04-15T01:46:44;4.33;;;2.30;;
78563;SDS011;67856;47.754;19.088;2023-04-15T01:49:46;3.22;;;2.08;;
78563;SDS011;67856;47.754;19.088;2023-04-15T01:52:49;4.03;;;2.25;;
78563;SDS011;67856;47.754;19.088;2023-04-15T01:55:52;4.78;;;2.28;;
78563;SDS011;67856;47.754;19.088;2023-04-15T01:58:55;4.07;;;2.60;;
78563;SDS011;67856;47.754;19.088;2023-04-15T02:01:57;3.70;;;2.30;;
78563;SDS011;67856;47.754;19.088;2023-04-15T02:05:01;3.72;;;2.13;;
78563;SDS011;67856;47.754;19.088;2023-04-15T02:08:05;4.45;;;2.20;;
78563;SDS011;67856;47.754;19.088;2023-04-15T02:11:10;4.55;;;2.15;;
78563;SDS011;67856;47.754;19.088;2023-04-15T02:14:12;3.30;;;2.10;;
78563;SDS011;67856;47.754;19.088;2023-04-15T02:17:15;3.90;;;2.30;;
78563;SDS011;67856;47.754;19.088;2023-04-15T02:20:18;3.08;;;2.00;;
78563;SDS011;67856;47.754;19.088;2023-04-15T02:23:22;3.17;;;2.15;;
78563;SDS011;67856;47.754;19.088;2023-04-15T02:26:24;4.13;;;2.10;;
78563;SDS011;67856;47.754;19.088;2023-04-15T02:29:30;4.13;;;2.17;;
78563;SDS011;67856;47.754;19.088;2023-04-15T02:32:35;4.47;;;2.30;;
78563;SDS011;67856;47.754;19.088;2023-04-15T02:35:39;3.17;;;2.03;;
78563;SDS011;67856;47.754;19.088;2023-04-15T02:38:45;3.53;;;2.10;;
78563;SDS011;67856;47.754;19.088;2023-04-15T02:41:49;3.45;;;2.00;;
78563;SDS011;67856;47.754;19.088;2023-04-15T02:44:55;3.40;;;2.10;;
78563;SDS011;67856;47.754;19.088;2023-04-15T02:48:04;4.00;;;2.10;;
78563;SDS011;67856;47.754;19.088;2023-04-15T02:51:17;3.10;;;2.10;;
78563;SDS011;67856;47.754;19.088;2023-04-15T02:54:21;3.65;;;2.22;;
78563;SDS011;67856;47.754;19.088;2023-04-15T02:57:24;3.25;;;2.05;;
78563;SDS011;67856;47.754;19.088;2023-04-15T03:00:27;5.03;;;2.47;;
78563;SDS011;67856;47.754;19.088;2023-04-15T03:03:29;3.47;;;1.97;;
78563;SDS011;67856;47.754;19.088;2023-04-15T03:06:32;4.03;;;2.10;;
78563;SDS011;67856;47.754;19.088;2023-04-15T03:09:34;3.47;;;2.00;;
78563;SDS011;67856;47.754;19.088;2023-04-15T03:12:37;4.47;;;2.10;;
78563;SDS011;67856;47.754;19.088;2023-04-15T03:15:40;3.20;;;2.00;;
78563;SDS011;67856;47.754;19.088;2023-04-15T03:18:43;3.97;;;2.57;;
78563;SDS011;67856;47.754;19.088;2023-04-15T03:21:46;3.13;;;2.08;;
78563;SDS011;67856;47.754;19.088;2023-04-15T03:24:49;3.35;;;2.03;;
78563;SDS011;67856;47.754;19.088;2023-04-15T03:27:51;3.53;;;2.20;;
78563;SDS011;67856;47.754;19.088;2023-04-15T03:30:54;3.17;;;2.07;;
78563;SDS011;67856;47.754;19.088;2023-04-15T03:33:56;2.83;;;1.83;;
78563;SDS011;67856;47.754;19.088;2023-04-15T03:36:59;3.40;;;2.10;;
78563;SDS011;67856;47.754;19.088;2023-04-15T03:40:02;3.42;;;2.08;;
78563;SDS011;67856;47.754;19.088;2023-04-15T03:43:04;4.32;;;2.40;;
78563;SDS011;67856;47.754;19.088;2023-04-15T03:46:06;3.20;;;1.90;;
78563;SDS011;67856;47.754;19.088;2023-04-15T03:49:09;3.13;;;1.80;;
78563;SDS011;67856;47.754;19.088;2023-04-15T03:52:12;3.40;;;2.03;;
78563;SDS011;67856;47.754;19.088;2023-04-15T03:55:14;2.65;;;1.98;;
78563;SDS011;67856;47.754;19.088;2023-04-15T03:58:17;3.25;;;1.65;;
78563;SDS011;67856;47.754;19.088;2023-04-15T04:01:19;2.87;;;1.97;;
78563;SDS011;67856;47.754;19.088;2023-04-15T04:04:22;2.67;;;1.80;;
78563;SDS011;67856;47.754;19.088;2023-04-15T04:07:25;3.50;;;2.00;;
78563;SDS011;67856;47.754;19.088;2023-04-15T04:10:27;2.70;;;1.80;;
78563;SDS011;67856;47.754;19.088;2023-04-15T04:13:29;2.92;;;2.10;;
78563;SDS011;67856;47.754;19.088;2023-04-15T04:16:32;4.50;;;1.87;;
78563;SDS011;67856;47.754;19.088;2023-04-15T04:19:34;2.80;;;2.00;;
78563;SDS011;67856;47.754;19.088;2023-04-15T04:22:40;3.20;;;1.60;;
78563;SDS011;67856;47.754;19.088;2023-04-15T04:25:42;2.72;;;1.63;;
78563;SDS011;67856;47.754;19.088;2023-04-15T04:28:45;4.13;;;1.92;;
78563;SDS011;67856;47.754;19.088;2023-04-15T04:31:47;2.90;;;1.80;;
78563;SDS011;67856;47.754;19.088;2023-04-15T04:34:50;4.17;;;2.00;;
78563;SDS011;67856;47.754;19.088;2023-04-15T04:37:52;2.90;;;1.90;;
78563;SDS011;67856;47.754;19.088;2023-04-15T04:40:54;3.88;;;2.13;;
78563;SDS011;67856;47.754;19.088;2023-04-15T04:43:57;3.28;;;2.22;;
78563;SDS011;67856;47.754;19.088;2023-04-15T04:46:59;3.13;;;1.87;;
78563;SDS011;67856;47.754;19.088;2023-04-15T04:50:02;3.20;;;2.03;;
78563;SDS011;67856;47.754;19.088;2023-04-15T04:53:04;3.70;;;2.28;;
78563;SDS011;67856;47.754;19.088;2023-04-15T04:56:07;2.92;;;1.92;;
78563;SDS011;67856;47.754;19.088;2023-04-15T04:59:09;3.55;;;2.25;;
78563;SDS011;67856;47.754;19.088;2023-04-15T05:02:11;4.30;;;2.10;;
78563;SDS011;67856;47.754;19.088;2023-04-15T05:05:14;3.23;;;2.07;;
78563;SDS011;67856;47.754;19.088;2023-04-15T05:08:17;3.95;;;2.17;;
78563;SDS011;67856;47.754;19.088;2023-04-15T05:11:19;3.88;;;2.10;;
78563;SDS011;67856;47.754;19.088;2023-04-15T05:14:22;3.92;;;2.45;;
78563;SDS011;67856;47.754;19.088;2023-04-15T05:17:24;4.00;;;2.80;;
78563;SDS011;67856;47.754;19.088;2023-04-15T05:20:26;4.30;;;2.77;;
78563;SDS011;67856;47.754;19.088;2023-04-15T05:23:29;4.90;;;3.00;;
78563;SDS011;67856;47.754;19.088;2023-04-15T05:26:31;4.22;;;2.45;;
78563;SDS011;67856;47.754;19.088;2023-04-15T05:29:34;3.08;;;2.10;;
78563;SDS011;67856;47.754;19.088;2023-04-15T05:32:36;4.10;;;2.67;;
78563;SDS011;67856;47.754;19.088;2023-04-15T05:35:39;4.93;;;2.80;;
78563;SDS011;67856;47.754;19.088;2023-04-15T05:38:41;4.53;;;2.20;;
78563;SDS011;67856;47.754;19.088;2023-04-15T05:41:43;3.70;;;2.28;;
78563;SDS011;67856;47.754;19.088;2023-04-15T05:44:46;3.28;;;2.15;;
78563;SDS011;67856;47.754;19.088;2023-04-15T05:47:48;3.93;;;2.20;;
78563;SDS011;67856;47.754;19.088;2023-04-15T05:50:51;3.40;;;2.00;;
78563;SDS011;67856;47.754;19.088;2023-04-15T05:53:54;2.55;;;1.83;;
78563;SDS011;67856;47.754;19.088;2023-04-15T05:56:56;3.58;;;2.30;;
78563;SDS011;67856;47.754;19.088;2023-04-15T05:59:59;3.47;;;2.08;;
78563;SDS011;67856;47.754;19.088;2023-04-15T06:03:02;3.37;;;2.20;;
78563;SDS011;67856;47.754;19.088;2023-04-15T06:06:05;3.73;;;2.10;;
78563;SDS011;67856;47.754;19.088;2023-04-15T06:09:08;2.58;;;1.90;;
78563;SDS011;67856;47.754;19.088;2023-04-15T06:12:10;3.53;;;2.20;;
78563;SDS011;67856;47.754;19.088;2023-04-15T06:15:14;2.75;;;1.83;;
78563;SDS011;67856;47.754;19.088;2023-04-15T06:18:16;3.97;;;2.00;;
78563;SDS011;67856;47.754;19.088;2023-04-15T06:21:18;3.27;;;2.00;;
78563;SDS011;67856;47.754;19.088;2023-04-15T06:24:21;3.35;;;2.13;;
78563;SDS011;67856;47.754;19.088;2023-04-15T06:27:23;3.13;;;1.60;;
78563;SDS011;67856;47.754;19.088;2023-04-15T06:30:26;2.72;;;1.83;;
78563;SDS011;67856;47.754;19.088;2023-04-15T06:33:28;4.00;;;2.27;;
78563;SDS011;67856;47.754;19.088;2023-04-15T06:36:31;3.47;;;2.20;;
78563;SDS011;67856;47.754;19.088;2023-04-15T06:39:33;2.58;;;1.80;;
78563;SDS011;67856;47.754;19.088;2023-04-15T06:42:35;3.45;;;2.20;;
78563;SDS011;67856;47.754;19.088;2023-04-15T06:45:39;3.10;;;1.92;;
78563;SDS011;67856;47.754;19.088;2023-04-15T06:48:41;2.83;;;1.90;;
78563;SDS011;67856;47.754;19.088;2023-04-15T06:51:44;2.70;;;1.83;;
78563;SDS011;67856;47.754;19.088;2023-04-15T06:54:46;3.53;;;2.10;;
78563;SDS011;67856;47.754;19.088;2023-04-15T06:57:48;3.20;;;2.10;;
78563;SDS011;67856;47.754;19.088;2023-04-15T07:00:51;2.75;;;1.80;;
78563;SDS011;67856;47.754;19.088;2023-04-15T07:03:54;3.43;;;2.30;;
78563;SDS011;67856;47.754;19.088;2023-04-15T07:06:56;3.17;;;1.97;;
78563;SDS011;67856;47.754;19.088;2023-04-15T07:09:58;3.22;;;2.15;;
78563;SDS011;67856;47.754;19.088;2023-04-15T07:13:03;3.22;;;2.00;;
78563;SDS011;67856;47.754;19.088;2023-04-15T07:16:05;4.53;;;2.50;;
78563;SDS011;67856;47.754;19.088;2023-04-15T07:19:07;4.20;;;2.27;;
78563;SDS011;67856;47.754;19.088;2023-04-15T07:22:10;2.73;;;1.93;;
78563;SDS011;67856;47.754;19.088;2023-04-15T07:25:12;3.30;;;2.33;;
78563;SDS011;67856;47.754;19.088;2023-04-15T07:28:15;3.47;;;2.40;;
78563;SDS011;67856;47.754;19.088;2023-04-15T07:31:17;2.92;;;1.77;;
78563;SDS011;67856;47.754;19.088;2023-04-15T07:34:20;3.50;;;1.90;;
78563;SDS011;67856;47.754;19.088;2023-04-15T07:37:22;2.80;;;1.80;;
78563;SDS011;67856;47.754;19.088;2023-04-15T07:40:25;2.60;;;1.92;;
78563;SDS011;67856;47.754;19.088;2023-04-15T07:43:27;2.85;;;1.80;;
78563;SDS011;67856;47.754;19.088;2023-04-15T07:46:30;2.65;;;1.80;;
78563;SDS011;67856;47.754;19.088;2023-04-15T07:49:32;2.63;;;1.50;;
78563;SDS011;67856;47.754;19.088;2023-04-15T07:52:35;2.70;;;1.87;;
78563;SDS011;67856;47.754;19.088;2023-04-15T07:55:40;3.20;;;2.10;;
78563;SDS011;67856;47.754;19.088;2023-04-15T07:58:42;3.05;;;2.10;;
78563;SDS011;67856;47.754;19.088;2023-04-15T08:01:45;2.78;;;1.70;;
78563;SDS011;67856;47.754;19.088;2023-04-15T08:04:47;2.83;;;1.70;;
78563;SDS011;67856;47.754;19.088;2023-04-15T08:07:50;2.60;;;1.63;;
78563;SDS011;67856;47.754;19.088;2023-04-15T08:10:52;2.33;;;1.70;;
78563;SDS011;67856;47.754;19.088;2023-04-15T08:13:54;2.67;;;1.80;;
78563;SDS011;67856;47.754;19.088;2023-04-15T08:16:57;3.08;;;1.77;;
78563;SDS011;67856;47.754;19.088;2023-04-15T08:19:59;2.60;;;1.80;;
78563;SDS011;67856;47.754;19.088;2023-04-15T08:23:02;2.23;;;1.40;;
78563;SDS011;67856;47.754;19.088;2023-04-15T08:26:05;2.50;;;1.52;;
78563;SDS011;67856;47.754;19.088;2023-04-15T08:29:08;3.03;;;2.08;;
78563;SDS011;67856;47.754;19.088;2023-04-15T08:32:10;2.47;;;1.40;;
78563;SDS011;67856;47.754;19.088;2023-04-15T08:35:13;2.60;;;1.60;;
78563;SDS011;67856;47.754;19.088;2023-04-15T08:38:16;4.37;;;1.90;;
78563;SDS011;67856;47.754;19.088;2023-04-15T08:41:22;2.55;;;1.50;;
78563;SDS011;67856;47.754;19.088;2023-04-15T08:44:26;3.20;;;1.90;;
78563;SDS011;67856;47.754;19.088;2023-04-15T08:47:30;2.60;;;1.80;;
78563;SDS011;67856;47.754;19.088;2023-04-15T08:50:33;2.37;;;1.67;;
78563;SDS011;67856;47.754;19.088;2023-04-15T08:53:36;2.83;;;1.80;;
78563;SDS011;67856;47.754;19.088;2023-04-15T08:56:38;2.83;;;1.85;;
78563;SDS011;67856;47.754;19.088;2023-04-15T08:59:41;2.63;;;1.60;;
78563;SDS011;67856;47.754;19.088;2023-04-15T09:02:44;2.53;;;1.60;;
78563;SDS011;67856;47.754;19.088;2023-04-15T09:05:47;2.67;;;1.57;;
78563;SDS011;67856;47.754;19.088;2023-04-15T09:08:54;2.20;;;1.40;;
78563;SDS011;67856;47.754;19.088;2023-04-15T09:11:56;2.33;;;1.50;;
78563;SDS011;67856;47.754;19.088;2023-04-15T09:14:59;2.15;;;1.52;;
78563;SDS011;67856;47.754;19.088;2023-04-15T09:18:02;1.88;;;1.40;;
78563;SDS011;67856;47.754;19.088;2023-04-15T09:21:05;2.00;;;1.40;;
78563;SDS011;67856;47.754;19.088;2023-04-15T09:24:09;2.20;;;1.50;;
78563;SDS011;67856;47.754;19.088;2023-04-15T09:27:12;1.80;;;1.27;;
78563;SDS011;67856;47.754;19.088;2023-04-15T09:30:17;2.25;;;1.38;;
78563;SDS011;67856;47.754;19.088;2023-04-15T09:33:20;2.50;;;1.70;;
78563;SDS011;67856;47.754;19.088;2023-04-15T09:36:22;2.50;;;1.50;;
78563;SDS011;67856;47.754;19.088;2023-04-15T09:39:26;1.93;;;1.40;;
78563;SDS011;67856;47.754;19.088;2023-04-15T09:42:28;1.60;;;1.20;;
78563;SDS011;67856;47.754;19.088;2023-04-15T09:45:31;2.30;;;1.45;;
78563;SDS011;67856;47.754;19.088;2023-04-15T09:48:35;1.40;;;1.20;;
78563;SDS011;67856;47.754;19.088;2023-04-15T09:51:37;1.93;;;1.30;;
78563;SDS011;67856;47.754;19.088;2023-04-15T09:54:40;1.60;;;1.20;;
78563;SDS011;67856;47.754;19.088;2023-04-15T09:57:42;1.50;;;1.10;;
78563;SDS011;67856;47.754;19.088;2023-04-15T10:00:48;2.55;;;1.30;;
78563;SDS011;67856;47.754;19.088;2023-04-15T10:03:52;1.60;;;1.10;;
78563;SDS011;67856;47.754;19.088;2023-04-15T10:06:57;1.73;;;1.23;;
78563;SDS011;67856;47.754;19.088;2023-04-15T10:10:00;1.53;;;1.03;;
78563;SDS011;67856;47.754;19.088;2023-04-15T10:13:06;1.52;;;1.10;;
78563;SDS011;67856;47.754;19.088;2023-04-15T10:16:10;1.50;;;1.05;;
78563;SDS011;67856;47.754;19.088;2023-04-15T10:19:13;1.23;;;0.95;;
78563;SDS011;67856;47.754;19.088;2023-04-15T10:22:17;2.23;;;1.30;;
78563;SDS011;67856;47.754;19.088;2023-04-15T10:25:19;1.60;;;1.17;;
78563;SDS011;67856;47.754;19.088;2023-04-15T10:28:22;1.85;;;1.40;;
78563;SDS011;67856;47.754;19.088;2023-04-15T10:31:25;1.60;;;1.00;;
78563;SDS011;67856;47.754;19.088;2023-04-15T10:34:27;2.10;;;1.30;;
78563;SDS011;67856;47.754;19.088;2023-04-15T10:37:35;1.70;;;1.07;;
78563;SDS011;67856;47.754;19.088;2023-04-15T10:40:39;1.87;;;1.10;;
78563;SDS011;67856;47.754;19.088;2023-04-15T10:43:55;1.63;;;1.00;;
78563;SDS011;67856;47.754;19.088;2023-04-15T10:46:58;2.38;;;1.48;;
78563;SDS011;67856;47.754;19.088;2023-04-15T10:50:01;2.10;;;1.50;;
78563;SDS011;67856;47.754;19.088;2023-04-15T10:53:04;1.93;;;1.20;;
78563;SDS011;67856;47.754;19.088;2023-04-15T10:56:07;1.47;;;1.07;;
78563;SDS011;67856;47.754;19.088;2023-04-15T10:59:09;2.10;;;1.50;;
78563;SDS011;67856;47.754;19.088;2023-04-15T11:02:12;1.70;;;1.30;;
78563;SDS011;67856;47.754;19.088;2023-04-15T11:05:15;1.75;;;1.20;;
78563;SDS011;67856;47.754;19.088;2023-04-15T11:08:18;2.37;;;1.20;;
78563;SDS011;67856;47.754;19.088;2023-04-15T11:11:21;2.60;;;1.37;;
78563;SDS011;67856;47.754;19.088;2023-04-15T11:14:24;1.60;;;1.20;;
78563;SDS011;67856;47.754;19.088;2023-04-15T11:17:27;1.67;;;1.20;;
78563;SDS011;67856;47.754;19.088;2023-04-15T11:20:32;2.45;;;1.05;;
78563;SDS011;67856;47.754;19.088;2023-04-15T11:23:38;2.67;;;1.10;;
78563;SDS011;67856;47.754;19.088;2023-04-15T11:26:45;1.93;;;1.30;;
78563;SDS011;67856;47.754;19.088;2023-04-15T11:29:47;2.35;;;1.20;;
78563;SDS011;67856;47.754;19.088;2023-04-15T11:32:50;1.55;;;1.17;;
78563;SDS011;67856;47.754;19.088;2023-04-15T11:35:54;1.95;;;1.20;;
78563;SDS011;67856;47.754;19.088;2023-04-15T11:38:56;1.83;;;1.20;;
78563;SDS011;67856;47.754;19.088;2023-04-15T11:42:00;1.83;;;1.30;;
78563;SDS011;67856;47.754;19.088;2023-04-15T11:45:12;1.42;;;1.13;;
78563;SDS011;67856;47.754;19.088;2023-04-15T11:48:16;1.58;;;1.20;;
78563;SDS011;67856;47.754;19.088;2023-04-15T11:51:19;2.20;;;1.27;;
78563;SDS011;67856;47.754;19.088;2023-04-15T11:54:23;1.40;;;1.10;;
78563;SDS011;67856;47.754;19.088;2023-04-15T11:57:30;1.90;;;1.20;;
78563;SDS011;67856;47.754;19.088;2023-04-15T12:00:33;1.77;;;1.17;;
78563;SDS011;67856;47.754;19.088;2023-04-15T12:03:39;1.65;;;1.00;;
78563;SDS011;67856;47.754;19.088;2023-04-15T12:06:50;1.63;;;1.00;;
78563;SDS011;67856;47.754;19.088;2023-04-15T12:09:55;1.70;;;1.20;;
78563;SDS011;67856;47.754;19.088;2023-04-15T12:12:58;1.40;;;1.10;;
78563;SDS011;67856;47.754;19.088;2023-04-15T12:16:02;1.60;;;1.10;;
78563;SDS011;67856;47.754;19.088;2023-04-15T12:19:06;1.42;;;1.00;;
78563;SDS011;67856;47.754;19.088;2023-04-15T12:22:13;1.52;;;1.00;;
78563;SDS011;67856;47.754;19.088;2023-04-15T12:25:17;1.60;;;1.10;;
78563;SDS011;67856;47.754;19.088;2023-04-15T12:28:19;1.90;;;0.90;;
78563;SDS011;67856;47.754;19.088;2023-04-15T12:31:21;1.83;;;1.08;;
78563;SDS011;67856;47.754;19.088;2023-04-15T12:34:28;1.48;;;1.00;;
78563;SDS011;67856;47.754;19.088;2023-04-15T12:37:34;1.77;;;1.02;;
78563;SDS011;67856;47.754;19.088;2023-04-15T12:40:36;2.07;;;1.00;;
78563;SDS011;67856;47.754;19.088;2023-04-15T12:43:39;1.30;;;1.03;;
78563;SDS011;67856;47.754;19.088;2023-04-15T12:46:41;1.60;;;1.10;;
78563;SDS011;67856;47.754;19.088;2023-04-15T12:49:44;1.40;;;0.93;;
78563;SDS011;67856;47.754;19.088;2023-04-15T12:52:46;1.40;;;1.15;;
78563;SDS011;67856;47.754;19.088;2023-04-15T12:55:49;1.70;;;1.00;;
78563;SDS011;67856;47.754;19.088;2023-04-15T12:58:51;1.77;;;1.20;;
78563;SDS011;67856;47.754;19.088;2023-04-15T13:01:54;1.30;;;0.90;;
78563;SDS011;67856;47.754;19.088;2023-04-15T13:04:56;1.55;;;0.95;;
78563;SDS011;67856;47.754;19.088;2023-04-15T13:07:59;1.42;;;1.00;;
78563;SDS011;67856;47.754;19.088;2023-04-15T13:11:02;1.80;;;1.10;;
78563;SDS011;67856;47.754;19.088;2023-04-15T13:14:05;1.73;;;1.13;;
78563;SDS011;67856;47.754;19.088;2023-04-15T13:17:09;1.40;;;1.10;;
78563;SDS011;67856;47.754;19.088;2023-04-15T13:20:12;1.33;;;0.98;;
78563;SDS011;67856;47.754;19.088;2023-04-15T13:23:15;1.60;;;0.95;;
78563;SDS011;67856;47.754;19.088;2023-04-15T13:26:17;1.60;;;1.13;;
78563;SDS011;67856;47.754;19.088;2023-04-15T13:29:20;1.20;;;0.97;;
78563;SDS011;67856;47.754;19.088;2023-04-15T13:32:23;1.95;;;0.95;;
78563;SDS011;67856;47.754;19.088;2023-04-15T13:35:25;1.70;;;0.90;;
78563;SDS011;67856;47.754;19.088;2023-04-15T13:38:28;1.50;;;1.00;;
78563;SDS011;67856;47.754;19.088;2023-04-15T13:41:30;1.70;;;1.10;;
78563;SDS011;67856;47.754;19.088;2023-04-15T13:44:33;1.17;;;0.97;;
78563;SDS011;67856;47.754;19.088;2023-04-15T13:47:36;1.23;;;0.82;;
78563;SDS011;67856;47.754;19.088;2023-04-15T13:50:38;0.90;;;0.73;;
78563;SDS011;67856;47.754;19.088;2023-04-15T13:53:42;1.63;;;0.90;;
78563;SDS011;67856;47.754;19.088;2023-04-15T13:56:45;1.30;;;1.10;;
78563;SDS011;67856;47.754;19.088;2023-04-15T13:59:47;1.13;;;0.80;;
78563;SDS011;67856;47.754;19.088;2023-04-15T14:02:50;1.38;;;0.90;;
78563;SDS011;67856;47.754;19.088;2023-04-15T14:05:53;1.42;;;1.05;;
78563;SDS011;67856;47.754;19.088;2023-04-15T14:08:57;1.55;;;1.17;;
78563;SDS011;67856;47.754;19.088;2023-04-15T14:11:59;1.20;;;1.00;;
78563;SDS011;67856;47.754;19.088;2023-04-15T14:15:02;1.77;;;0.93;;
78563;SDS011;67856;47.754;19.088;2023-04-15T14:18:05;1.60;;;1.00;;
78563;SDS011;67856;47.754;19.088;2023-04-15T14:21:08;1.20;;;0.88;;
78563;SDS011;67856;47.754;19.088;2023-04-15T14:24:10;1.27;;;1.08;;
78563;SDS011;67856;47.754;19.088;2023-04-15T14:27:13;1.40;;;0.90;;
78563;SDS011;67856;47.754;19.088;2023-04-15T14:30:16;1.80;;;1.17;;
78563;SDS011;67856;47.754;19.088;2023-04-15T14:33:18;1.98;;;1.00;;
78563;SDS011;67856;47.754;19.088;2023-04-15T14:36:21;1.60;;;1.00;;
78563;SDS011;67856;47.754;19.088;2023-04-15T14:39:24;1.35;;;1.00;;
78563;SDS011;67856;47.754;19.088;2023-04-15T14:42:26;1.37;;;1.03;;
78563;SDS011;67856;47.754;19.088;2023-04-15T14:45:28;1.53;;;1.13;;
78563;SDS011;67856;47.754;19.088;2023-04-15T14:48:31;1.50;;;1.05;;
78563;SDS011;67856;47.754;19.088;2023-04-15T14:51:34;1.60;;;1.10;;
78563;SDS011;67856;47.754;19.088;2023-04-15T14:54:36;1.45;;;1.00;;
78563;SDS011;67856;47.754;19.088;2023-04-15T14:57:39;1.80;;;1.33;;
78563;SDS011;67856;47.754;19.088;2023-04-15T15:00:42;1.10;;;1.00;;
78563;SDS011;67856;47.754;19.088;2023-04-15T15:03:45;1.42;;;1.00;;
78563;SDS011;67856;47.754;19.088;2023-04-15T15:06:48;1.40;;;0.95;;
78563;SDS011;67856;47.754;19.088;2023-04-15T15:09:52;1.48;;;1.00;;
78563;SDS011;67856;47.754;19.088;2023-04-15T15:12:55;1.00;;;0.90;;
78563;SDS011;67856;47.754;19.088;2023-04-15T15:15:57;1.20;;;0.90;;
78563;SDS011;67856;47.754;19.088;2023-04-15T15:19:00;1.50;;;1.27;;
78563;SDS011;67856;47.754;19.088;2023-04-15T15:22:02;1.85;;;1.00;;
78563;SDS011;67856;47.754;19.088;2023-04-15T15:25:05;1.35;;;1.10;;
78563;SDS011;67856;47.754;19.088;2023-04-15T15:28:07;2.00;;;1.00;;
78563;SDS011;67856;47.754;19.088;2023-04-15T15:31:10;1.40;;;1.10;;
78563;SDS011;67856;47.754;19.088;2023-04-15T15:34:12;1.65;;;1.00;;
78563;SDS011;67856;47.754;19.088;2023-04-15T15:37:15;1.42;;;0.82;;
78563;SDS011;67856;47.754;19.088;2023-04-15T15:40:17;1.33;;;0.80;;
78563;SDS011;67856;47.754;19.088;2023-04-15T15:43:20;2.30;;;1.20;;
78563;SDS011;67856;47.754;19.088;2023-04-15T15:46:22;1.40;;;0.80;;
78563;SDS011;67856;47.754;19.088;2023-04-15T15:49:43;1.50;;;1.10;;
78563;SDS011;67856;47.754;19.088;2023-04-15T15:52:47;1.30;;;1.10;;
78563;SDS011;67856;47.754;19.088;2023-04-15T15:55:49;1.67;;;1.20;;
78563;SDS011;67856;47.754;19.088;2023-04-15T15:58:54;2.50;;;1.70;;
78563;SDS011;67856;47.754;19.088;2023-04-15T16:01:57;2.10;;;1.50;;
78563;SDS011;67856;47.754;19.088;2023-04-15T16:05:00;1.92;;;1.25;;
78563;SDS011;67856;47.754;19.088;2023-04-15T16:08:02;2.50;;;1.38;;
78563;SDS011;67856;47.754;19.088;2023-04-15T16:11:05;2.38;;;1.40;;
78563;SDS011;67856;47.754;19.088;2023-04-15T16:14:07;2.43;;;1.50;;
78563;SDS011;67856;47.754;19.088;2023-04-15T16:17:09;2.00;;;1.30;;
78563;SDS011;67856;47.754;19.088;2023-04-15T16:20:12;2.30;;;1.40;;
78563;SDS011;67856;47.754;19.088;2023-04-15T16:23:15;1.77;;;1.30;;
78563;SDS011;67856;47.754;19.088;2023-04-15T16:26:17;1.38;;;1.10;;
78563;SDS011;67856;47.754;19.088;2023-04-15T16:29:20;1.50;;;0.90;;
78563;SDS011;67856;47.754;19.088;2023-04-15T16:32:22;1.27;;;0.80;;
78563;SDS011;67856;47.754;19.088;2023-04-15T16:35:25;1.33;;;0.80;;
78563;SDS011;67856;47.754;19.088;2023-04-15T16:38:27;1.23;;;0.82;;
78563;SDS011;67856;47.754;19.088;2023-04-15T16:41:30;1.20;;;0.80;;
78563;SDS011;67856;47.754;19.088;2023-04-15T16:44:35;1.23;;;0.80;;
78563;SDS011;67856;47.754;19.088;2023-04-15T16:47:37;1.07;;;0.70;;
78563;SDS011;67856;47.754;19.088;2023-04-15T16:50:40;1.20;;;0.90;;
78563;SDS011;67856;47.754;19.088;2023-04-15T16:53:42;1.17;;;0.70;;
78563;SDS011;67856;47.754;19.088;2023-04-15T16:56:44;1.20;;;0.75;;
78563;SDS011;67856;47.754;19.088;2023-04-15T16:59:47;1.20;;;0.70;;
78563;SDS011;67856;47.754;19.088;2023-04-15T17:02:49;1.60;;;1.00;;
78563;SDS011;67856;47.754;19.088;2023-04-15T17:05:52;1.60;;;0.90;;
78563;SDS011;67856;47.754;19.088;2023-04-15T17:08:54;1.23;;;0.70;;
78563;SDS011;67856;47.754;19.088;2023-04-15T17:11:57;1.25;;;0.80;;
78563;SDS011;67856;47.754;19.088;2023-04-15T17:14:59;1.20;;;0.80;;
78563;SDS011;67856;47.754;19.088;2023-04-15T17:18:03;1.80;;;1.03;;
78563;SDS011;67856;47.754;19.088;2023-04-15T17:21:05;1.50;;;1.00;;
78563;SDS011;67856;47.754;19.088;2023-04-15T17:24:08;1.40;;;0.80;;
78563;SDS011;67856;47.754;19.088;2023-04-15T17:27:10;2.05;;;1.05;;
78563;SDS011;67856;47.754;19.088;2023-04-15T17:30:13;1.63;;;1.00;;
78563;SDS011;67856;47.754;19.088;2023-04-15T17:33:15;2.13;;;0.90;;
78563;SDS011;67856;47.754;19.088;2023-04-15T17:36:37;1.38;;;0.90;;
78563;SDS011;67856;47.754;19.088;2023-04-15T17:39:40;1.75;;;1.00;;
78563;SDS011;67856;47.754;19.088;2023-04-15T17:42:42;2.65;;;1.42;;
78563;SDS011;67856;47.754;19.088;2023-04-15T17:45:45;4.70;;;3.10;;
78563;SDS011;67856;47.754;19.088;2023-04-15T17:48:48;4.80;;;3.17;;
78563;SDS011;67856;47.754;19.088;2023-04-15T17:51:51;3.10;;;2.33;;
78563;SDS011;67856;47.754;19.088;2023-04-15T17:54:55;4.63;;;2.53;;
78563;SDS011;67856;47.754;19.088;2023-04-15T17:57:58;4.40;;;2.50;;
78563;SDS011;67856;47.754;19.088;2023-04-15T18:01:01;3.63;;;2.40;;
78563;SDS011;67856;47.754;19.088;2023-04-15T18:04:04;2.30;;;1.50;;
78563;SDS011;67856;47.754;19.088;2023-04-15T18:07:07;1.98;;;0.98;;